createdAt,value
2018-09-25T00:00:49.355Z,95.23
2018-09-25T00:01:49.344Z,95.13
2018-09-25T00:02:49.332Z,95.03
2018-09-25T00:03:49.321Z,94.92
2018-09-25T00:04:49.312Z,94.92
2018-09-25T00:05:49.298Z,95.23
2018-09-25T00:06:49.291Z,95.44
2018-09-25T00:07:49.282Z,95.64
2018-09-25T00:08:49.273Z,95.95
2018-09-25T00:09:49.258Z,96.06
2018-09-25T00:10:49.245Z,96.06
2018-09-25T00:11:49.236Z,95.95
2018-09-25T00:12:49.236Z,95.95
2018-09-25T00:13:49.212Z,95.95
2018-09-25T00:14:49.201Z,95.75
2018-09-25T00:15:49.190Z,95.75
2018-09-25T00:16:49.182Z,95.34
2018-09-25T00:17:49.170Z,94.92
2018-09-25T00:18:49.159Z,94.92
2018-09-25T00:19:49.152Z,95.03
2018-09-25T00:20:49.141Z,95.03
2018-09-25T00:21:49.130Z,94.72
2018-09-25T00:22:49.117Z,94.72
2018-09-25T00:23:49.107Z,95.03
2018-09-25T00:24:49.095Z,95.44
2018-09-25T00:25:49.084Z,95.75
2018-09-25T00:26:49.073Z,95.95
2018-09-25T00:27:49.061Z,95.95
2018-09-25T00:28:49.052Z,96.06
2018-09-25T00:29:49.040Z,96.16
2018-09-25T00:30:49.027Z,96.02
2018-09-25T00:31:49.016Z,95.81
2018-09-25T00:32:49.007Z,95.64
2018-09-25T00:33:48.994Z,95.64
2018-09-25T00:34:48.997Z,95.64
2018-09-25T00:35:48.973Z,95.64
2018-09-25T00:36:48.961Z,95.91
2018-09-25T00:37:48.951Z,96.16
2018-09-25T00:38:48.941Z,96.22
2018-09-25T00:39:48.930Z,96.22
2018-09-25T00:40:48.920Z,96.12
2018-09-25T00:41:48.907Z,96.22
2018-09-25T00:42:48.898Z,96.12
2018-09-25T00:43:48.886Z,96.22
2018-09-25T00:44:48.876Z,96.02
2018-09-25T00:45:48.864Z,96.06
2018-09-25T00:46:48.854Z,96.27
2018-09-25T00:47:48.850Z,96.27
2018-09-25T00:48:48.834Z,96.27
2018-09-25T00:49:48.821Z,96.27
2018-09-25T00:50:48.810Z,96.16
2018-09-25T00:51:48.798Z,96.27
2018-09-25T00:52:48.791Z,96.06
2018-09-25T00:53:48.780Z,96.41
2018-09-25T00:54:48.773Z,96.31
2018-09-25T00:55:48.756Z,96.31
2018-09-25T00:56:48.744Z,96.41
2018-09-25T00:57:48.736Z,96.62
2018-09-25T00:58:48.731Z,96.93
2018-09-25T00:59:48.713Z,96.93
2018-09-25T01:00:48.708Z,97.03
2018-09-25T01:01:48.694Z,97.03
2018-09-25T01:02:48.681Z,96.93
2018-09-25T01:03:48.669Z,96.93
2018-09-25T01:04:48.664Z,97.03
2018-09-25T01:05:48.649Z,97.03
2018-09-25T01:06:48.634Z,97.03
2018-09-25T01:07:48.623Z,96.93
2018-09-25T01:08:48.614Z,96.83
2018-09-25T01:09:48.605Z,96.83
2018-09-25T01:10:48.595Z,96.83
2018-09-25T01:11:48.582Z,96.83
2018-09-25T01:12:48.570Z,96.83
2018-09-25T01:13:48.561Z,96.72
2018-09-25T01:14:48.548Z,96.72
2018-09-25T01:15:48.540Z,96.62
2018-09-25T01:16:48.526Z,96.62
2018-09-25T01:17:48.517Z,96.72
2018-09-25T01:18:48.505Z,96.93
2018-09-25T01:19:48.500Z,96.93
2018-09-25T01:20:48.485Z,97.14
2018-09-25T01:21:48.474Z,97.14
2018-09-25T01:22:48.464Z,97.03
2018-09-25T01:23:48.452Z,97.03
2018-09-25T01:24:48.443Z,97.03
2018-09-25T01:25:48.429Z,97.14
2018-09-25T01:26:48.417Z,97.14
2018-09-25T01:27:48.411Z,96.93
2018-09-25T01:28:48.396Z,96.93
2018-09-25T01:29:48.384Z,96.93
2018-09-25T01:30:48.376Z,97.14
2018-09-25T01:31:48.366Z,97.03
2018-09-25T01:32:48.353Z,96.99
2018-09-25T01:33:48.344Z,96.89
2018-09-25T01:34:48.333Z,96.78
2018-09-25T01:35:48.324Z,96.78
2018-09-25T01:36:48.311Z,96.72
2018-09-25T01:37:48.298Z,96.89
2018-09-25T01:38:48.287Z,96.99
2018-09-25T01:39:48.277Z,96.99
2018-09-25T01:40:48.264Z,96.78
2018-09-25T01:41:48.258Z,96.78
2018-09-25T01:42:48.244Z,96.78
2018-09-25T01:43:48.234Z,96.78
2018-09-25T01:44:48.224Z,96.89
2018-09-25T01:45:48.216Z,96.99
2018-09-25T01:46:48.202Z,96.89
2018-09-25T01:47:48.192Z,96.89
2018-09-25T01:48:48.182Z,96.78
2018-09-25T01:49:48.167Z,96.68
2018-09-25T01:50:48.161Z,96.47
2018-09-25T01:51:48.146Z,96.47
2018-09-25T01:52:48.138Z,96.68
2018-09-25T01:53:48.127Z,96.58
2018-09-25T01:54:48.113Z,96.58
2018-09-25T01:55:48.104Z,96.58
2018-09-25T01:56:48.092Z,96.89
2018-09-25T01:57:48.081Z,96.89
2018-09-25T01:58:48.069Z,96.78
2018-09-25T01:59:48.061Z,96.89
2018-09-25T02:00:48.053Z,96.89
2018-09-25T02:01:48.039Z,96.78
2018-09-25T02:02:48.024Z,96.78
2018-09-25T02:03:48.019Z,96.68
2018-09-25T02:04:48.005Z,96.68
2018-09-25T02:05:48.051Z,96.78
2018-09-25T02:06:47.984Z,96.99
2018-09-25T02:07:47.976Z,96.89
2018-09-25T02:08:47.962Z,96.99
2018-09-25T02:09:47.950Z,97.20
2018-09-25T02:10:47.942Z,97.41
2018-09-25T02:11:47.930Z,97.20
2018-09-25T02:12:47.917Z,96.58
2018-09-25T02:13:47.911Z,96.58
2018-09-25T02:14:47.899Z,96.78
2018-09-25T02:15:47.891Z,96.47
2018-09-25T02:16:47.872Z,96.37
2018-09-25T02:17:47.861Z,96.06
2018-09-25T02:18:47.851Z,96.16
2018-09-25T02:19:47.842Z,96.47
2018-09-25T02:20:47.831Z,96.47
2018-09-25T02:21:47.819Z,96.27
2018-09-25T02:22:47.811Z,96.27
2018-09-25T02:23:47.800Z,96.27
2018-09-25T02:24:47.786Z,96.27
2018-09-25T02:25:47.778Z,95.95
2018-09-25T02:26:47.764Z,96.06
2018-09-25T02:27:47.756Z,96.16
2018-09-25T02:28:47.744Z,96.16
2018-09-25T02:29:47.736Z,96.06
2018-09-25T02:30:47.728Z,95.81
2018-09-25T02:31:47.712Z,96.02
2018-09-25T02:32:47.700Z,95.91
2018-09-25T02:33:47.689Z,95.70
2018-09-25T02:34:47.677Z,95.50
2018-09-25T02:35:47.667Z,95.60
2018-09-25T02:36:47.656Z,95.50
2018-09-25T02:37:47.644Z,95.44
2018-09-25T02:38:47.636Z,95.64
2018-09-25T02:39:47.623Z,95.95
2018-09-25T02:40:47.614Z,96.27
2018-09-25T02:41:47.605Z,96.58
2018-09-25T02:42:47.594Z,96.68
2018-09-25T02:43:47.581Z,96.78
2018-09-25T02:44:47.570Z,96.93
2018-09-25T02:45:47.557Z,97.60
2018-09-25T02:46:47.548Z,98.01
2018-09-25T02:47:47.538Z,98.84
2018-09-25T02:48:47.528Z,98.43
2018-09-25T02:49:47.515Z,98.01
2018-09-25T02:50:47.503Z,98.16
2018-09-25T02:51:47.492Z,98.68
2018-09-25T02:52:47.483Z,98.53
2018-09-25T02:53:47.473Z,98.32
2018-09-25T02:54:47.461Z,98.12
2018-09-25T02:55:47.452Z,98.43
2018-09-25T02:56:47.438Z,98.22
2018-09-25T02:57:47.430Z,98.43
2018-09-25T02:58:47.416Z,98.27
2018-09-25T02:59:47.405Z,98.37
2018-09-25T03:00:47.397Z,98.27
2018-09-25T03:01:47.386Z,98.73
2018-09-25T03:02:47.374Z,98.73
2018-09-25T03:03:47.366Z,99.29
2018-09-25T03:04:47.355Z,99.50
2018-09-25T03:05:47.345Z,99.56
2018-09-25T03:06:47.333Z,99.45
2018-09-25T03:07:47.322Z,99.40
2018-09-25T03:08:47.324Z,99.60
2018-09-25T03:09:47.300Z,99.35
2018-09-25T03:10:47.286Z,99.29
2018-09-25T03:11:47.274Z,98.98
2018-09-25T03:12:47.265Z,98.77
2018-09-25T03:13:47.253Z,98.77
2018-09-25T03:14:47.245Z,98.57
2018-09-25T03:15:47.233Z,98.36
2018-09-25T03:16:47.221Z,98.57
2018-09-25T03:17:47.211Z,98.77
2018-09-25T03:18:47.199Z,98.88
2018-09-25T03:19:47.188Z,98.88
2018-09-25T03:20:47.175Z,98.73
2018-09-25T03:21:47.166Z,98.73
2018-09-25T03:22:47.157Z,98.83
2018-09-25T03:23:47.307Z,99.04
2018-09-25T03:24:47.136Z,98.88
2018-09-25T03:25:47.124Z,98.73
2018-09-25T03:26:47.118Z,98.67
2018-09-25T03:27:47.102Z,98.41
2018-09-25T03:28:47.090Z,98.21
2018-09-25T03:29:47.083Z,97.74
2018-09-25T03:30:47.070Z,97.38
2018-09-25T03:31:47.071Z,97.27
2018-09-25T03:32:47.049Z,97.17
2018-09-25T03:33:47.036Z,96.65
2018-09-25T03:34:47.027Z,96.96
2018-09-25T03:35:47.016Z,97.07
2018-09-25T03:36:47.007Z,97.38
2018-09-25T03:37:46.991Z,97.58
2018-09-25T03:38:46.982Z,97.79
2018-09-25T03:39:46.973Z,97.90
2018-09-25T03:40:46.964Z,97.90
2018-09-25T03:41:47.006Z,97.79
2018-09-25T03:42:46.939Z,98.00
2018-09-25T03:43:46.927Z,98.00
2018-09-25T03:44:46.919Z,98.00
2018-09-25T03:45:46.906Z,98.00
2018-09-25T03:46:46.902Z,97.90
2018-09-25T03:47:46.886Z,97.79
2018-09-25T03:48:46.873Z,97.69
2018-09-25T03:49:46.863Z,97.58
2018-09-25T03:50:46.851Z,97.38
2018-09-25T03:51:46.848Z,97.38
2018-09-25T03:52:46.831Z,97.38
2018-09-25T03:53:46.818Z,97.53
2018-09-25T03:54:46.810Z,97.63
2018-09-25T03:55:46.797Z,97.79
2018-09-25T03:56:46.788Z,97.90
2018-09-25T03:57:46.783Z,98.00
2018-09-25T03:58:46.763Z,98.00
2018-09-25T03:59:46.754Z,97.69
2018-09-25T04:00:46.745Z,97.54
2018-09-25T04:01:46.729Z,97.23
2018-09-25T04:02:46.718Z,96.92
2018-09-25T04:03:46.710Z,96.61
2018-09-25T04:04:46.698Z,96.40
2018-09-25T04:05:46.688Z,96.30
2018-09-25T04:06:46.677Z,96.24
2018-09-25T04:07:46.664Z,96.30
2018-09-25T04:08:46.653Z,96.30
2018-09-25T04:09:46.643Z,96.44
2018-09-25T04:10:46.633Z,96.44
2018-09-25T04:11:46.627Z,96.40
2018-09-25T04:12:46.615Z,96.44
2018-09-25T04:13:46.602Z,96.24
2018-09-25T04:14:46.591Z,96.24
2018-09-25T04:15:46.579Z,96.13
2018-09-25T04:16:46.570Z,96.24
2018-09-25T04:17:46.563Z,96.44
2018-09-25T04:18:46.548Z,96.55
2018-09-25T04:19:46.534Z,97.07
2018-09-25T04:20:46.525Z,97.27
2018-09-25T04:21:46.513Z,97.27
2018-09-25T04:22:46.509Z,97.17
2018-09-25T04:23:46.493Z,96.96
2018-09-25T04:24:46.481Z,96.96
2018-09-25T04:25:46.471Z,97.07
2018-09-25T04:26:46.461Z,97.07
2018-09-25T04:27:46.450Z,97.27
2018-09-25T04:28:46.446Z,97.27
2018-09-25T04:29:46.428Z,97.38
2018-09-25T04:30:46.420Z,97.38
2018-09-25T04:31:46.405Z,97.38
2018-09-25T04:32:46.393Z,97.27
2018-09-25T04:33:46.389Z,97.17
2018-09-25T04:34:46.372Z,97.17
2018-09-25T04:35:46.361Z,96.96
2018-09-25T04:36:46.353Z,97.07
2018-09-25T04:37:46.340Z,97.07
2018-09-25T04:38:46.329Z,96.96
2018-09-25T04:39:46.320Z,96.96
2018-09-25T04:40:46.308Z,96.75
2018-09-25T04:41:46.299Z,96.65
2018-09-25T04:42:46.284Z,96.55
2018-09-25T04:43:46.277Z,96.55
2018-09-25T04:44:46.266Z,96.13
2018-09-25T04:45:46.255Z,95.61
2018-09-25T04:46:46.245Z,95.20
2018-09-25T04:47:46.281Z,95.09
2018-09-25T04:48:46.220Z,95.30
2018-09-25T04:49:46.209Z,95.61
2018-09-25T04:50:46.198Z,95.61
2018-09-25T04:51:46.193Z,95.61
2018-09-25T04:52:46.178Z,95.41
2018-09-25T04:53:46.165Z,95.51
2018-09-25T04:54:46.155Z,95.51
2018-09-25T04:55:46.149Z,95.41
2018-09-25T04:56:46.135Z,95.51
2018-09-25T04:57:46.124Z,95.41
2018-09-25T04:58:46.116Z,95.20
2018-09-25T04:59:46.101Z,94.99
2018-09-25T05:00:46.090Z,94.99
2018-09-25T05:01:46.078Z,95.30
2018-09-25T05:02:46.068Z,95.51
2018-09-25T05:03:46.058Z,95.77
2018-09-25T05:04:46.046Z,96.18
2018-09-25T05:05:46.034Z,96.34
2018-09-25T05:06:46.154Z,96.44
2018-09-25T05:07:46.021Z,96.55
2018-09-25T05:08:46.003Z,96.55
2018-09-25T05:09:45.998Z,96.34
2018-09-25T05:10:45.981Z,96.13
2018-09-25T05:11:45.972Z,96.13
2018-09-25T05:12:45.960Z,96.09
2018-09-25T05:13:45.950Z,96.09
2018-09-25T05:14:45.975Z,95.88
2018-09-25T05:15:45.930Z,95.88
2018-09-25T05:16:45.918Z,95.98
2018-09-25T05:17:45.905Z,95.98
2018-09-25T05:18:45.895Z,95.88
2018-09-25T05:19:45.884Z,95.78
2018-09-25T05:20:45.874Z,94.74
2018-09-25T05:21:45.862Z,94.01
2018-09-25T05:22:45.854Z,92.77
2018-09-25T05:23:45.840Z,92.40
2018-09-25T05:24:45.833Z,92.40
2018-09-25T05:25:45.822Z,92.09
2018-09-25T05:26:45.809Z,92.03
2018-09-25T05:27:45.795Z,92.44
2018-09-25T05:28:45.787Z,93.11
2018-09-25T05:29:45.774Z,93.42
2018-09-25T05:30:45.763Z,93.53
2018-09-25T05:31:45.755Z,93.94
2018-09-25T05:32:45.745Z,93.63
2018-09-25T05:33:45.732Z,93.63
2018-09-25T05:34:45.720Z,93.63
2018-09-25T05:35:45.708Z,94.36
2018-09-25T05:36:45.702Z,94.46
2018-09-25T05:37:45.687Z,94.04
2018-09-25T05:38:45.674Z,92.90
2018-09-25T05:39:45.669Z,93.32
2018-09-25T05:40:45.677Z,93.11
2018-09-25T05:41:45.643Z,93.63
2018-09-25T05:42:45.633Z,93.38
2018-09-25T05:43:45.621Z,93.69
2018-09-25T05:44:45.613Z,93.54
2018-09-25T05:45:45.603Z,91.84
2018-09-25T05:46:45.588Z,90.70
2018-09-25T05:47:45.577Z,89.83
2018-09-25T05:48:45.597Z,88.17
2018-09-25T05:49:45.553Z,88.00
2018-09-25T05:50:45.620Z,88.38
2018-09-25T05:51:45.538Z,87.86
2018-09-25T05:52:45.522Z,87.09
2018-09-25T05:53:45.513Z,86.81
2018-09-25T05:54:45.500Z,85.15
2018-09-25T05:55:45.491Z,84.49
2018-09-25T05:56:45.479Z,83.21
2018-09-25T05:57:45.468Z,83.31
2018-09-25T05:58:45.463Z,82.90
2018-09-25T05:59:45.448Z,82.28
2018-09-25T06:00:45.435Z,81.52
2018-09-25T06:01:45.426Z,80.96
2018-09-25T06:02:45.413Z,79.34
2018-09-25T06:03:45.401Z,78.11
2018-09-25T06:04:45.393Z,77.34
2018-09-25T06:05:45.384Z,76.35
2018-09-25T06:06:45.373Z,75.49
2018-09-25T06:07:45.360Z,74.05
2018-09-25T06:08:45.348Z,73.84
2018-09-25T06:09:45.456Z,74.49
2018-09-25T06:10:45.330Z,76.18
2018-09-25T06:11:45.317Z,75.80
2018-09-25T06:12:45.304Z,77.24
2018-09-25T06:13:45.299Z,77.69
2018-09-25T06:14:45.283Z,78.55
2018-09-25T06:15:45.323Z,79.62
2018-09-25T06:16:45.260Z,79.21
2018-09-25T06:17:45.249Z,80.28
2018-09-25T06:18:45.296Z,81.10
2018-09-25T06:19:45.228Z,81.52
2018-09-25T06:20:45.218Z,80.80
2018-09-25T06:21:45.207Z,80.94
2018-09-25T06:22:45.197Z,81.52
2018-09-25T06:23:45.185Z,81.69
2018-09-25T06:24:45.173Z,80.76
2018-09-25T06:25:45.165Z,80.41
2018-09-25T06:26:45.181Z,80.17
2018-09-25T06:27:45.145Z,79.34
2018-09-25T06:28:45.185Z,80.75
2018-09-25T06:29:45.118Z,79.76
2018-09-25T06:30:45.112Z,79.86
2018-09-25T06:31:45.100Z,80.79
2018-09-25T06:32:45.092Z,81.24
2018-09-25T06:33:45.074Z,80.93
2018-09-25T06:34:45.081Z,81.45
2018-09-25T06:35:45.055Z,82.58
2018-09-25T06:36:45.041Z,82.48
2018-09-25T06:37:45.032Z,83.14
2018-09-25T06:38:45.069Z,83.65
2018-09-25T06:39:45.013Z,83.34
2018-09-25T06:40:45.021Z,82.93
2018-09-25T06:41:44.989Z,83.55
2018-09-25T06:42:44.978Z,83.28
2018-09-25T06:43:44.968Z,84.31
2018-09-25T06:44:44.956Z,84.31
2018-09-25T06:45:44.946Z,84.83
2018-09-25T06:46:44.933Z,84.00
2018-09-25T06:47:44.924Z,84.31
2018-09-25T06:48:44.915Z,85.55
2018-09-25T06:49:44.901Z,85.55
2018-09-25T06:50:44.893Z,85.55
2018-09-25T06:51:44.881Z,86.31
2018-09-25T06:52:44.868Z,87.20
2018-09-25T06:53:44.857Z,86.27
2018-09-25T06:54:44.950Z,86.38
2018-09-25T06:55:44.837Z,86.07
2018-09-25T06:56:44.827Z,86.07
2018-09-25T06:57:44.812Z,86.27
2018-09-25T06:58:44.801Z,86.89
2018-09-25T06:59:44.794Z,85.72
2018-09-25T07:00:44.851Z,84.89
2018-09-25T07:01:44.771Z,84.27
2018-09-25T07:02:44.757Z,85.20
2018-09-25T07:03:44.750Z,86.92
2018-09-25T07:04:44.737Z,85.78
2018-09-25T07:05:44.725Z,86.40
2018-09-25T07:06:44.721Z,85.10
2018-09-25T07:07:44.704Z,86.54
2018-09-25T07:08:44.691Z,86.13
2018-09-25T07:09:44.751Z,86.44
2018-09-25T07:10:44.798Z,87.26
2018-09-25T07:11:44.658Z,87.26
2018-09-25T07:12:44.653Z,86.75
2018-09-25T07:13:44.638Z,85.93
2018-09-25T07:14:44.626Z,87.06
2018-09-25T07:15:44.632Z,87.37
2018-09-25T07:16:44.605Z,87.82
2018-09-25T07:17:44.658Z,87.20
2018-09-25T07:18:44.584Z,87.20
2018-09-25T07:19:44.572Z,88.14
2018-09-25T07:20:44.563Z,87.66
2018-09-25T07:21:44.550Z,89.37
2018-09-25T07:22:44.582Z,88.65
2018-09-25T07:23:44.535Z,89.06
2018-09-25T07:24:44.616Z,87.82
2018-09-25T07:25:44.509Z,88.14
2018-09-25T07:26:44.495Z,88.65
2018-09-25T07:27:44.484Z,89.37
2018-09-25T07:28:44.475Z,88.51
2018-09-25T07:29:44.462Z,89.44
2018-09-25T07:30:44.452Z,88.92
2018-09-25T07:31:44.442Z,87.78
2018-09-25T07:32:44.431Z,87.47
2018-09-25T07:33:44.421Z,87.89
2018-09-25T07:34:44.410Z,87.17
2018-09-25T07:35:44.437Z,88.81
2018-09-25T07:36:44.386Z,88.57
2018-09-25T07:37:44.380Z,87.95
2018-09-25T07:38:44.364Z,88.15
2018-09-25T07:39:44.425Z,86.19
2018-09-25T07:40:44.343Z,86.30
2018-09-25T07:41:44.333Z,87.54
2018-09-25T07:42:44.322Z,88.26
2018-09-25T07:43:44.313Z,87.84
2018-09-25T07:44:44.299Z,86.92
2018-09-25T07:45:44.287Z,86.19
2018-09-25T07:46:44.276Z,87.23
2018-09-25T07:47:44.268Z,87.60
2018-09-25T07:48:44.262Z,87.64
2018-09-25T07:49:44.244Z,87.08
2018-09-25T07:50:44.235Z,87.81
2018-09-25T07:51:44.224Z,86.67
2018-09-25T07:52:44.211Z,87.29
2018-09-25T07:53:44.200Z,86.36
2018-09-25T07:54:44.193Z,86.52
2018-09-25T07:55:44.304Z,86.42
2018-09-25T07:56:44.170Z,85.70
2018-09-25T07:57:44.158Z,85.49
2018-09-25T07:58:44.148Z,85.66
2018-09-25T07:59:44.133Z,85.04
2018-09-25T08:00:44.125Z,84.74
2018-09-25T08:01:44.112Z,85.35
2018-09-25T08:02:44.101Z,85.35
2018-09-25T08:03:44.095Z,84.94
2018-09-25T08:04:44.083Z,84.53
2018-09-25T08:05:44.071Z,84.83
2018-09-25T08:06:44.062Z,85.04
2018-09-25T08:07:44.049Z,84.63
2018-09-25T08:08:44.037Z,84.22
2018-09-25T08:09:44.033Z,84.49
2018-09-25T08:10:44.015Z,85.41
2018-09-25T08:11:44.004Z,84.80
2018-09-25T08:12:43.994Z,84.35
2018-09-25T08:13:43.983Z,84.76
2018-09-25T08:14:43.971Z,83.31
2018-09-25T08:15:43.959Z,83.48
2018-09-25T08:16:43.951Z,83.69
2018-09-25T08:17:43.941Z,83.17
2018-09-25T08:18:43.929Z,83.48
2018-09-25T08:19:43.918Z,83.79
2018-09-25T08:20:43.907Z,82.76
2018-09-25T08:21:43.897Z,82.00
2018-09-25T08:22:43.887Z,82.42
2018-09-25T08:23:43.874Z,81.80
2018-09-25T08:24:43.871Z,81.45
2018-09-25T08:25:43.852Z,81.04
2018-09-25T08:26:43.881Z,81.25
2018-09-25T08:27:43.829Z,80.12
2018-09-25T08:28:43.819Z,79.87
2018-09-25T08:29:43.865Z,79.98
2018-09-25T08:30:43.800Z,79.77
2018-09-25T08:31:43.787Z,78.95
2018-09-25T08:32:43.776Z,79.01
2018-09-25T08:33:43.766Z,79.22
2018-09-25T08:34:43.752Z,79.29
2018-09-25T08:35:43.741Z,78.67
2018-09-25T08:36:43.732Z,78.05
2018-09-25T08:37:43.722Z,79.39
2018-09-25T08:38:43.768Z,79.08
2018-09-25T08:39:43.698Z,78.63
2018-09-25T08:40:43.688Z,78.74
2018-09-25T08:41:43.698Z,77.88
2018-09-25T08:42:43.665Z,76.95
2018-09-25T08:43:43.659Z,77.47
2018-09-25T08:44:43.662Z,77.16
2018-09-25T08:45:43.661Z,77.22
2018-09-25T08:46:43.621Z,76.71
2018-09-25T08:47:43.631Z,76.81
2018-09-25T08:48:43.599Z,76.92
2018-09-25T08:49:43.601Z,77.13
2018-09-25T08:50:43.579Z,76.40
2018-09-25T08:51:43.568Z,76.71
2018-09-25T08:52:43.558Z,77.26
2018-09-25T08:53:43.546Z,77.57
2018-09-25T08:54:43.535Z,77.67
2018-09-25T08:55:43.530Z,77.67
2018-09-25T08:56:43.514Z,77.57
2018-09-25T08:57:43.508Z,77.47
2018-09-25T08:58:43.490Z,76.95
2018-09-25T08:59:43.479Z,77.98
2018-09-25T09:00:43.468Z,78.28
2018-09-25T09:01:43.457Z,77.98
2018-09-25T09:02:43.448Z,78.39
2018-09-25T09:03:43.435Z,79.32
2018-09-25T09:04:43.426Z,78.80
2018-09-25T09:05:43.414Z,78.08
2018-09-25T09:06:43.403Z,78.49
2018-09-25T09:07:43.396Z,78.28
2018-09-25T09:08:43.379Z,78.90
2018-09-25T09:09:43.371Z,79.11
2018-09-25T09:10:43.363Z,79.45
2018-09-25T09:11:43.350Z,79.55
2018-09-25T09:12:43.337Z,79.35
2018-09-25T09:13:43.328Z,79.45
2018-09-25T09:14:43.316Z,79.45
2018-09-25T09:15:43.307Z,80.03
2018-09-25T09:16:43.294Z,80.03
2018-09-25T09:17:43.281Z,79.52
2018-09-25T09:18:43.290Z,79.83
2018-09-25T09:19:43.285Z,79.32
2018-09-25T09:20:43.252Z,79.38
2018-09-25T09:21:43.237Z,79.48
2018-09-25T09:22:43.226Z,79.85
2018-09-25T09:23:43.216Z,79.75
2018-09-25T09:24:43.206Z,80.06
2018-09-25T09:25:43.197Z,80.37
2018-09-25T09:26:43.185Z,80.47
2018-09-25T09:27:43.173Z,80.47
2018-09-25T09:28:43.166Z,80.13
2018-09-25T09:29:43.152Z,79.62
2018-09-25T09:30:43.139Z,79.71
2018-09-25T09:31:43.131Z,80.23
2018-09-25T09:32:43.178Z,80.29
2018-09-25T09:33:43.109Z,80.70
2018-09-25T09:34:43.096Z,79.88
2018-09-25T09:35:43.092Z,81.11
2018-09-25T09:36:43.075Z,81.32
2018-09-25T09:37:43.063Z,81.11
2018-09-25T09:38:43.053Z,81.28
2018-09-25T09:39:43.039Z,81.18
2018-09-25T09:40:43.033Z,80.67
2018-09-25T09:41:43.316Z,80.15
2018-09-25T09:42:43.012Z,79.85
2018-09-25T09:43:42.996Z,79.50
2018-09-25T09:44:42.988Z,79.81
2018-09-25T09:45:42.977Z,79.71
2018-09-25T09:46:42.963Z,79.26
2018-09-25T09:47:42.959Z,79.67
2018-09-25T09:48:42.966Z,79.67
2018-09-25T09:49:42.932Z,79.57
2018-09-25T09:50:42.921Z,79.57
2018-09-25T09:51:42.911Z,79.98
2018-09-25T09:52:42.899Z,79.77
2018-09-25T09:53:42.888Z,79.43
2018-09-25T09:54:42.876Z,79.53
2018-09-25T09:55:42.867Z,79.33
2018-09-25T09:56:42.857Z,79.19
2018-09-25T09:57:42.844Z,78.68
2018-09-25T09:58:42.833Z,78.27
2018-09-25T09:59:42.821Z,77.86
2018-09-25T10:00:42.811Z,78.13
2018-09-25T10:01:42.799Z,77.21
2018-09-25T10:02:42.791Z,76.70
2018-09-25T10:03:42.779Z,76.87
2018-09-25T10:04:42.768Z,72.99
2018-09-25T10:05:42.757Z,73.36
2018-09-25T10:06:42.849Z,72.65
2018-09-25T10:07:42.734Z,72.10
2018-09-25T10:08:42.727Z,73.63
2018-09-25T10:09:42.712Z,73.22
2018-09-25T10:10:42.705Z,73.84
2018-09-25T10:11:42.692Z,74.35
2018-09-25T10:12:42.678Z,69.55
2018-09-25T10:13:42.669Z,69.04
2018-09-25T10:14:42.657Z,67.18
2018-09-25T10:15:42.648Z,66.66
2018-09-25T10:16:42.636Z,68.37
2018-09-25T10:17:42.625Z,70.30
2018-09-25T10:18:42.650Z,68.57
2018-09-25T10:19:42.602Z,67.96
2018-09-25T10:20:42.590Z,70.88
2018-09-25T10:21:42.581Z,70.07
2018-09-25T10:22:42.569Z,67.21
2018-09-25T10:23:42.560Z,65.49
2018-09-25T10:24:42.548Z,67.82
2018-09-25T10:25:42.535Z,65.46
2018-09-25T10:26:42.524Z,64.33
2018-09-25T10:27:42.516Z,63.83
2018-09-25T10:28:42.504Z,64.94
2018-09-25T10:29:42.497Z,63.11
2018-09-25T10:30:42.484Z,62.78
2018-09-25T10:31:42.472Z,61.56
2018-09-25T10:32:42.460Z,62.98
2018-09-25T10:33:42.496Z,63.89
2018-09-25T10:34:42.437Z,64.58
2018-09-25T10:35:42.426Z,65.49
2018-09-25T10:36:42.418Z,63.15
2018-09-25T10:37:42.406Z,62.71
2018-09-25T10:38:42.394Z,62.92
2018-09-25T10:39:42.383Z,63.73
2018-09-25T10:40:42.371Z,59.77
2018-09-25T10:41:42.364Z,57.94
2018-09-25T10:42:42.353Z,58.17
2018-09-25T10:43:42.341Z,58.75
2018-09-25T10:44:42.328Z,58.75
2018-09-25T10:45:42.315Z,58.99
2018-09-25T10:46:42.308Z,59.72
2018-09-25T10:47:42.298Z,59.93
2018-09-25T10:48:42.283Z,60.00
2018-09-25T10:49:42.297Z,60.30
2018-09-25T10:50:42.263Z,64.04
2018-09-25T10:51:42.250Z,63.43
2018-09-25T10:52:42.240Z,62.59
2018-09-25T10:53:42.228Z,57.81
2018-09-25T10:54:42.217Z,57.20
2018-09-25T10:55:42.215Z,57.81
2018-09-25T10:56:42.195Z,56.79
2018-09-25T10:57:42.184Z,56.59
2018-09-25T10:58:42.175Z,57.33
2018-09-25T10:59:42.163Z,57.71
2018-09-25T11:00:42.151Z,57.00
2018-09-25T11:01:42.139Z,58.52
2018-09-25T11:02:42.136Z,55.68
2018-09-25T11:03:42.118Z,54.56
2018-09-25T11:04:42.109Z,56.67
2018-09-25T11:05:42.099Z,49.66
2018-09-25T11:06:42.088Z,49.02
2018-09-25T11:07:42.075Z,49.35
2018-09-25T11:08:42.068Z,50.17
2018-09-25T11:09:42.052Z,50.17
2018-09-25T11:10:42.043Z,49.05
2018-09-25T11:11:42.031Z,48.97
2018-09-25T11:12:42.021Z,49.99
2018-09-25T11:13:42.010Z,51.00
2018-09-25T11:14:42.000Z,50.50
2018-09-25T11:15:41.987Z,50.19
2018-09-25T11:16:41.979Z,50.80
2018-09-25T11:17:41.992Z,53.82
2018-09-25T11:18:41.958Z,49.38
2018-09-25T11:19:41.951Z,51.39
2018-09-25T11:20:41.933Z,51.18
2018-09-25T11:21:41.923Z,51.48
2018-09-25T11:22:41.913Z,48.64
2018-09-25T11:23:41.901Z,49.15
2018-09-25T11:24:41.891Z,48.01
2018-09-25T11:25:41.877Z,47.52
2018-09-25T11:26:41.870Z,47.52
2018-09-25T11:27:41.857Z,48.64
2018-09-25T11:28:41.845Z,47.12
2018-09-25T11:29:41.835Z,47.63
2018-09-25T11:30:41.823Z,46.13
2018-09-25T11:31:41.816Z,46.51
2018-09-25T11:32:41.801Z,46.71
2018-09-25T11:33:41.787Z,46.20
2018-09-25T11:34:41.782Z,46.31
2018-09-25T11:35:41.769Z,45.98
2018-09-25T11:36:41.763Z,46.69
2018-09-25T11:37:41.745Z,45.17
2018-09-25T11:38:41.734Z,46.69
2018-09-25T11:39:41.723Z,45.35
2018-09-25T11:40:41.713Z,45.35
2018-09-25T11:41:41.700Z,45.75
2018-09-25T11:42:41.689Z,45.45
2018-09-25T11:43:41.678Z,45.75
2018-09-25T11:44:41.668Z,46.18
2018-09-25T11:45:41.656Z,46.67
2018-09-25T11:46:41.765Z,46.16
2018-09-25T11:47:41.634Z,46.27
2018-09-25T11:48:41.626Z,46.47
2018-09-25T11:49:41.642Z,45.15
2018-09-25T11:50:41.602Z,44.94
2018-09-25T11:51:41.592Z,45.45
2018-09-25T11:52:41.599Z,45.15
2018-09-25T11:53:41.573Z,44.13
2018-09-25T11:54:41.564Z,44.01
2018-09-25T11:55:41.551Z,43.81
2018-09-25T11:56:41.534Z,44.39
2018-09-25T11:57:41.526Z,44.09
2018-09-25T11:58:41.516Z,44.31
2018-09-25T11:59:41.507Z,44.62
2018-09-25T12:00:41.492Z,43.91
2018-09-25T12:01:41.481Z,44.11
2018-09-25T12:02:41.478Z,43.71
2018-09-25T12:03:41.461Z,42.99
2018-09-25T12:04:41.451Z,42.08
2018-09-25T12:05:41.441Z,42.08
2018-09-25T12:06:41.428Z,42.99
2018-09-25T12:07:41.417Z,43.50
2018-09-25T12:08:41.406Z,44.01
2018-09-25T12:09:41.392Z,43.59
2018-09-25T12:10:41.403Z,42.98
2018-09-25T12:11:41.371Z,42.98
2018-09-25T12:12:41.365Z,42.87
2018-09-25T12:13:41.357Z,42.77
2018-09-25T12:14:41.342Z,47.44
2018-09-25T12:15:41.328Z,45.00
2018-09-25T12:16:41.318Z,44.90
2018-09-25T12:17:41.306Z,43.89
2018-09-25T12:18:41.293Z,44.80
2018-09-25T12:19:41.284Z,43.67
2018-09-25T12:20:41.273Z,43.44
2018-09-25T12:21:41.260Z,43.64
2018-09-25T12:22:41.252Z,43.75
2018-09-25T12:23:41.239Z,44.15
2018-09-25T12:24:41.226Z,43.04
2018-09-25T12:25:41.216Z,43.24
2018-09-25T12:26:41.206Z,42.93
2018-09-25T12:27:41.206Z,43.95
2018-09-25T12:28:41.187Z,43.52
2018-09-25T12:29:41.174Z,43.82
2018-09-25T12:30:41.169Z,43.02
2018-09-25T12:31:41.151Z,42.41
2018-09-25T12:32:41.216Z,41.19
2018-09-25T12:33:41.170Z,43.50
2018-09-25T12:34:41.121Z,45.33
2018-09-25T12:35:41.108Z,47.53
2018-09-25T12:36:41.097Z,44.90
2018-09-25T12:37:41.086Z,42.98
2018-09-25T12:38:41.105Z,43.96
2018-09-25T12:39:41.065Z,43.67
2018-09-25T12:40:41.053Z,43.76
2018-09-25T12:41:41.047Z,44.07
2018-09-25T12:42:41.030Z,44.65
2018-09-25T12:43:41.020Z,43.82
2018-09-25T12:44:41.011Z,44.73
2018-09-25T12:45:40.997Z,44.03
2018-09-25T12:46:40.989Z,44.01
2018-09-25T12:47:40.977Z,44.51
2018-09-25T12:48:40.966Z,45.01
2018-09-25T12:49:40.954Z,43.70
2018-09-25T12:50:40.941Z,44.01
2018-09-25T12:51:40.932Z,43.80
2018-09-25T12:52:40.922Z,44.51